Time;durP1;ratioP1;P1;durP2;ratioP2;P2;SDS_P1;SDS_P2;PMS_P1;PMS_P2;Temp;Humidity;BMP_temperature;BMP_pressure;BME280_temperature;BME280_humidity;BME280_pressure;Samples;Min_cycle;Max_cycle;Signal;HPM_P1;HPM_P2
2021/12/21 00:00:55;;;;;;;;;;;1.50;99.90;;;;;;5014893;28;19910;-76
2021/12/21 00:03:20;;;;;;;;;;;1.40;99.90;;;;;;5016095;28;19906;-75
2021/12/21 00:05:46;;;;;;;;;;;1.40;99.90;;;;;;5015954;28;19909;-74
2021/12/21 00:08:13;;;;;;;;;;;1.30;99.90;;;;;;5016099;28;19913;-74
2021/12/21 00:10:40;;;;;;;;;;;1.30;99.90;;;;;;5016022;28;19906;-74
2021/12/21 00:13:09;;;;;;;;;;;1.30;99.90;;;;;;5014695;28;19910;-74
2021/12/21 00:18:29;;;;;;;;;;;1.20;99.90;;;;;;5014582;28;20278;-74
2021/12/21 00:26:02;;;;;;;;;;;0.90;99.90;;;;;;5014381;28;19912;-75
2021/12/21 00:28:33;;;;;;;;;;;1.00;99.90;;;;;;5014474;28;19905;-75
2021/12/21 00:30:59;;;;;;;;;;;0.90;99.90;;;;;;5015685;28;19905;-74
2021/12/21 00:33:24;;;;;;;;;;;0.90;99.90;;;;;;5015587;28;20404;-75
2021/12/21 00:35:50;;;;;;;;;;;0.80;99.90;;;;;;5015692;28;20004;-75
2021/12/21 00:38:16;;;;;;;;;;;0.70;99.90;;;;;;5015524;28;19909;-74
2021/12/21 00:40:41;;;;;;;;;;;0.70;99.90;;;;;;5014317;28;19952;-74
2021/12/21 00:43:07;;;;;;;;;;;0.60;99.90;;;;;;5015462;28;19906;-74
2021/12/21 00:45:32;;;;;;;;;;;0.60;99.90;;;;;;5015297;28;19952;-74
2021/12/21 00:47:58;;;;;;;;;;;0.60;99.90;;;;;;5015341;28;19905;-75
2021/12/21 00:50:24;;;;;;;;;;;0.70;99.90;;;;;;5013992;28;19912;-74
2021/12/21 00:52:51;;;;;;;;;;;0.60;99.90;;;;;;5015212;28;20292;-75
2021/12/21 00:55:17;;;;;;;;;;;0.70;99.90;;;;;;5014015;28;20008;-75
2021/12/21 00:57:43;;;;;;;;;;;0.70;99.90;;;;;;5014983;28;20373;-74
2021/12/21 01:00:10;;;;;;;;;;;0.60;99.90;;;;;;5013855;28;19948;-76
2021/12/21 01:02:36;;;;;;;;;;;0.80;99.90;;;;;;5015028;28;20011;-75
2021/12/21 01:05:03;;;;;;;;;;;0.80;99.90;;;;;;5015043;28;19945;-74
2021/12/21 01:07:35;;;;;;;;;;;0.80;99.90;;;;;;5014817;28;19905;-75
2021/12/21 01:10:46;;;;;;;;;;;0.90;99.90;;;;;;5013764;28;19906;-74
2021/12/21 01:18:06;;;;;;;;;;;1.00;99.90;;;;;;5014640;28;19917;-75
2021/12/21 01:20:37;;;;;;;;;;;0.90;99.90;;;;;;5014819;28;19905;-75
2021/12/21 01:23:42;;;;;;;;;;;1.00;99.90;;;;;;5014769;28;19905;-75
2021/12/21 01:26:23;;;;;;;;;;;0.90;99.90;;;;;;5013118;28;20292;-75
2021/12/21 01:29:03;;;;;;;;;;;0.90;99.90;;;;;;5013307;28;19912;-75
2021/12/21 01:31:52;;;;;;;;;;;1.00;99.90;;;;;;5013310;28;19959;-75
2021/12/21 01:36:58;;;;;;;;;;;0.80;99.90;;;;;;5013078;28;19953;-74
2021/12/21 01:49:50;;;;;;;;;;;0.80;99.90;;;;;;5013041;28;20357;-74
2021/12/21 01:52:17;;;;;;;;;;;0.70;99.90;;;;;;5014119;28;20425;-74
2021/12/21 01:54:43;;;;;;;;;;;0.70;99.90;;;;;;5012720;28;20016;-74
2021/12/21 01:57:09;;;;;;;;;;;0.80;99.90;;;;;;5013769;28;19910;-74
2021/12/21 01:59:35;;;;;;;;;;;0.70;99.90;;;;;;5013986;28;20353;-76
2021/12/21 02:02:01;;;;;;;;;;;0.80;99.90;;;;;;5013124;28;20007;-75
2021/12/21 02:04:26;;;;;;;;;;;0.80;99.90;;;;;;5012669;28;20399;-74
2021/12/21 02:06:52;;;;;;;;;;;0.70;99.90;;;;;;5013725;28;19912;-74
2021/12/21 02:09:19;;;;;;;;;;;0.60;99.90;;;;;;5013822;28;20365;-74
2021/12/21 02:11:46;;;;;;;;;;;0.50;99.90;;;;;;5013654;28;19912;-74
2021/12/21 02:14:13;;;;;;;;;;;0.30;99.90;;;;;;5012474;28;20235;-75
2021/12/21 02:16:52;;;;;;;;;;;-0.10;99.90;;;;;;5019157;28;19915;-75
2021/12/21 02:21:53;;;;;;;;;;;-0.40;99.90;;;;;;5031962;28;19995;-75
2021/12/21 02:24:24;;;;;;;;;;;-0.10;99.90;;;;;;5031795;28;19998;-74
2021/12/21 02:29:35;;;;;;;;;;;-0.10;99.90;;;;;;5033322;28;19905;-75
2021/12/21 02:32:01;;;;;;;;;;;-0.30;99.90;;;;;;5033106;28;20332;-75
2021/12/21 02:34:27;;;;;;;;;;;-0.10;99.90;;;;;;5033090;28;19909;-74
2021/12/21 02:36:54;;;;;;;;;;;0.00;99.90;;;;;;5032983;28;20280;-75
2021/12/21 02:39:20;;;;;;;;;;;0.20;99.90;;;;;;5031774;28;19905;-74
2021/12/21 02:41:46;;;;;;;;;;;0.40;99.90;;;;;;5032565;28;19909;-74
2021/12/21 02:44:12;;;;;;;;;;;0.50;99.90;;;;;;5031739;28;19905;-74
2021/12/21 02:46:39;;;;;;;;;;;0.60;99.90;;;;;;5031491;28;19909;-74
2021/12/21 02:49:06;;;;;;;;;;;0.00;99.90;;;;;;5031564;28;19904;-75
2021/12/21 02:51:31;;;;;;;;;;;-0.30;99.90;;;;;;5032733;28;20284;-76
2021/12/21 02:53:57;;;;;;;;;;;-0.40;99.90;;;;;;5031312;28;19935;-74
2021/12/21 02:56:23;;;;;;;;;;;-0.30;99.90;;;;;;5032619;28;19905;-74
2021/12/21 02:58:48;;;;;;;;;;;-0.20;99.90;;;;;;5014495;28;19916;-74
2021/12/21 03:01:14;;;;;;;;;;;-0.20;99.90;;;;;;5012901;28;19960;-74
2021/12/21 03:03:40;;;;;;;;;;;-0.10;99.90;;;;;;5012907;28;20324;-74
2021/12/21 03:06:12;;;;;;;;;;;-0.10;99.90;;;;;;5012799;28;20003;-75
2021/12/21 03:08:55;;;;;;;;;;;0.00;99.90;;;;;;5012965;28;19912;-75
2021/12/21 03:11:35;;;;;;;;;;;-0.20;99.90;;;;;;5011693;28;20253;-75
2021/12/21 03:14:04;;;;;;;;;;;-0.50;99.90;;;;;;5011925;28;19910;-74
2021/12/21 03:16:31;;;;;;;;;;;-0.50;99.90;;;;;;5012451;28;19956;-74
2021/12/21 03:18:57;;;;;;;;;;;-0.40;99.90;;;;;;5012889;28;19959;-74
2021/12/21 03:21:23;;;;;;;;;;;-0.60;99.90;;;;;;5011454;28;19993;-74
2021/12/21 03:23:48;;;;;;;;;;;-0.70;99.90;;;;;;5012712;28;19952;-75
2021/12/21 03:26:14;;;;;;;;;;;-0.50;99.90;;;;;;5012627;28;20438;-74
2021/12/21 03:28:40;;;;;;;;;;;-0.70;99.90;;;;;;5011464;28;19956;-74
2021/12/21 03:31:06;;;;;;;;;;;-0.40;99.90;;;;;;5012578;28;19967;-74
2021/12/21 03:33:32;;;;;;;;;;;-0.50;99.90;;;;;;5012428;28;20411;-74
2021/12/21 03:36:00;;;;;;;;;;;-0.60;99.90;;;;;;5012375;28;20332;-75
2021/12/21 03:38:27;;;;;;;;;;;-0.90;99.90;;;;;;5012643;28;19905;-75
2021/12/21 03:40:54;;;;;;;;;;;-0.80;99.90;;;;;;5012513;28;19905;-75
2021/12/21 03:43:20;;;;;;;;;;;-0.80;99.90;;;;;;5012489;28;19910;-74
2021/12/21 03:45:55;;;;;;;;;;;-1.00;99.90;;;;;;5011041;28;19913;-74
2021/12/21 03:48:21;;;;;;;;;;;-0.90;99.90;;;;;;4994854;28;19910;-74
2021/12/21 03:50:47;;;;;;;;;;;-0.90;99.90;;;;;;5012415;28;19906;-74
2021/12/21 03:53:12;;;;;;;;;;;-1.00;99.90;;;;;;5012159;28;19932;-75
2021/12/21 03:55:38;;;;;;;;;;;-1.10;99.90;;;;;;5012277;28;19921;-75
2021/12/21 03:58:03;;;;;;;;;;;-1.00;99.90;;;;;;5012424;28;19959;-74
2021/12/21 04:00:29;;;;;;;;;;;-1.10;99.90;;;;;;5012322;28;19975;-74
2021/12/21 04:02:55;;;;;;;;;;;-1.20;99.90;;;;;;5010961;28;19906;-74
2021/12/21 04:05:21;;;;;;;;;;;-1.30;99.90;;;;;;5011176;28;20000;-74
2021/12/21 04:07:46;;;;;;;;;;;-1.40;99.90;;;;;;5012153;28;20417;-74
2021/12/21 04:10:12;;;;;;;;;;;-1.40;99.90;;;;;;5012298;28;19905;-74
2021/12/21 04:12:38;;;;;;;;;;;-1.30;99.90;;;;;;5010824;28;20258;-74
2021/12/21 04:15:06;;;;;;;;;;;-1.60;99.90;;;;;;5010976;28;20328;-74
2021/12/21 04:17:32;;;;;;;;;;;-1.70;99.90;;;;;;5010836;28;20373;-74
2021/12/21 04:19:58;;;;;;;;;;;-1.60;99.90;;;;;;5012280;28;19912;-74
2021/12/21 04:22:23;;;;;;;;;;;-1.70;99.90;;;;;;5012112;28;19928;-74
2021/12/21 04:24:49;;;;;;;;;;;-1.80;99.90;;;;;;5014085;28;19955;-74
2021/12/21 04:27:15;;;;;;;;;;;-1.70;99.90;;;;;;5016036;28;20039;-75
2021/12/21 04:29:41;;;;;;;;;;;-1.80;99.90;;;;;;5015804;28;19927;-74
2021/12/21 04:32:06;;;;;;;;;;;-1.60;99.90;;;;;;5015735;28;19905;-74
2021/12/21 04:34:33;;;;;;;;;;;-1.30;99.90;;;;;;5014304;28;19918;-74
2021/12/21 04:36:59;;;;;;;;;;;-1.10;99.90;;;;;;5015387;28;19916;-75
2021/12/21 04:41:56;;;;;;;;;;;-0.90;99.90;;;;;;5015523;28;20424;-75
2021/12/21 04:44:22;;;;;;;;;;;-0.90;99.90;;;;;;5015391;28;19948;-74
2021/12/21 04:46:47;;;;;;;;;;;-1.00;99.90;;;;;;5015268;28;19991;-74
2021/12/21 04:49:13;;;;;;;;;;;-1.20;99.90;;;;;;5014353;28;20313;-74
2021/12/21 04:51:39;;;;;;;;;;;-1.10;99.90;;;;;;5015173;28;19909;-74
2021/12/21 04:54:04;;;;;;;;;;;-1.20;99.90;;;;;;5015238;28;19910;-74
2021/12/21 04:56:30;;;;;;;;;;;-1.10;99.90;;;;;;5015095;28;20376;-74
2021/12/21 04:58:55;;;;;;;;;;;-1.00;99.90;;;;;;5013935;28;19955;-73
2021/12/21 05:01:21;;;;;;;;;;;-1.20;99.90;;;;;;5013914;28;19909;-73
2021/12/21 05:03:47;;;;;;;;;;;-1.00;99.90;;;;;;5015106;28;19912;-74
2021/12/21 05:06:15;;;;;;;;;;;-0.80;99.90;;;;;;5014941;28;20306;-73
2021/12/21 05:08:41;;;;;;;;;;;-0.90;99.90;;;;;;5013815;28;20308;-73
2021/12/21 05:11:07;;;;;;;;;;;-1.10;99.90;;;;;;5013675;28;19967;-74
2021/12/21 05:13:37;;;;;;;;;;;-1.00;99.90;;;;;;5013680;28;19909;-73
2021/12/21 05:16:03;;;;;;;;;;;-1.00;99.90;;;;;;5013527;28;20388;-74
2021/12/21 05:18:32;;;;;;;;;;;-0.80;99.90;;;;;;5014820;28;19917;-73
2021/12/21 05:20:58;;;;;;;;;;;-0.90;99.90;;;;;;5014719;28;20305;-74
2021/12/21 05:23:24;;;;;;;;;;;-0.90;99.90;;;;;;5014808;28;19906;-73
2021/12/21 05:25:49;;;;;;;;;;;-1.00;99.90;;;;;;5014509;28;20003;-74
2021/12/21 05:28:15;;;;;;;;;;;-1.10;99.90;;;;;;5014683;28;19905;-74
2021/12/21 05:30:42;;;;;;;;;;;-1.10;99.90;;;;;;5013194;28;19905;-74
2021/12/21 05:33:07;;;;;;;;;;;-1.00;99.90;;;;;;5013233;28;20300;-73
2021/12/21 05:35:34;;;;;;;;;;;-1.20;99.90;;;;;;5013363;28;19997;-74
2021/12/21 05:38:03;;;;;;;;;;;-1.10;99.90;;;;;;5013081;28;20007;-74
2021/12/21 05:41:04;;;;;;;;;;;-1.10;99.90;;;;;;5014389;28;19912;-74
2021/12/21 05:43:21;;;;;;;;;;;-0.90;99.90;;;;;;5009934;28;19960;-74
2021/12/21 05:45:46;;;;;;;;;;;-0.80;99.90;;;;;;5012821;28;19909;-74
2021/12/21 05:48:12;;;;;;;;;;;-0.70;99.90;;;;;;5012913;28;19932;-74
2021/12/21 05:50:38;;;;;;;;;;;-0.70;99.90;;;;;;5014112;28;20357;-74
2021/12/21 05:53:04;;;;;;;;;;;-1.00;99.90;;;;;;5013950;28;19918;-74
2021/12/21 05:55:29;;;;;;;;;;;-1.00;99.90;;;;;;5012878;28;19910;-74
2021/12/21 05:57:55;;;;;;;;;;;-1.00;99.90;;;;;;5013957;28;19987;-73
2021/12/21 06:00:23;;;;;;;;;;;-1.20;99.90;;;;;;5012836;28;20354;-74
2021/12/21 06:02:48;;;;;;;;;;;-1.20;99.90;;;;;;4996276;28;20445;-74
2021/12/21 06:05:14;;;;;;;;;;;-1.00;99.90;;;;;;5013877;28;19913;-74
2021/12/21 06:07:40;;;;;;;;;;;-0.80;99.90;;;;;;5012617;28;19912;-74
2021/12/21 06:10:17;;;;;;;;;;;-1.00;99.90;;;;;;5012782;28;19905;-74
2021/12/21 06:15:20;;;;;;;;;;;-1.10;99.90;;;;;;5013769;28;19909;-74
2021/12/21 06:25:55;;;;;;;;;;;-1.10;99.90;;;;;;5013361;28;19911;-73
2021/12/21 06:28:21;;;;;;;;;;;-1.30;99.90;;;;;;5013573;28;20004;-74
2021/12/21 06:30:47;;;;;;;;;;;-1.30;99.90;;;;;;5013484;28;20357;-74
2021/12/21 06:33:13;;;;;;;;;;;-1.20;99.90;;;;;;5013359;28;19909;-73
2021/12/21 06:35:39;;;;;;;;;;;-1.20;99.90;;;;;;5025545;28;20380;-74
2021/12/21 06:38:05;;;;;;;;;;;-1.10;99.90;;;;;;5032811;28;19960;-74
2021/12/21 06:40:31;;;;;;;;;;;-1.00;99.90;;;;;;5032923;28;19911;-74
2021/12/21 06:43:00;;;;;;;;;;;-1.00;99.90;;;;;;5015024;28;19909;-74
2021/12/21 06:45:32;;;;;;;;;;;-0.90;99.90;;;;;;5031569;28;19905;-73
2021/12/21 06:53:27;;;;;;;;;;;-0.80;99.90;;;;;;5031304;28;19916;-74
2021/12/21 06:55:53;;;;;;;;;;;-0.60;99.90;;;;;;5031293;28;19909;-75
2021/12/21 06:58:18;;;;;;;;;;;-0.70;99.90;;;;;;5032600;28;19905;-73
2021/12/21 07:00:45;;;;;;;;;;;-0.80;99.90;;;;;;5014960;28;20090;-74
2021/12/21 07:03:11;;;;;;;;;;;-0.80;99.90;;;;;;5032581;28;20348;-74
2021/12/21 07:05:39;;;;;;;;;;;-0.60;99.90;;;;;;5031075;28;19963;-74
2021/12/21 07:08:04;;;;;;;;;;;-0.80;99.90;;;;;;5031599;28;19905;-74
2021/12/21 07:10:32;;;;;;;;;;;-0.90;99.90;;;;;;5032837;28;20869;-74
2021/12/21 07:18:29;;;;;;;;;;;-0.90;99.90;;;;;;5032203;28;19920;-73
2021/12/21 07:20:58;;;;;;;;;;;-0.90;99.90;;;;;;5031243;28;21222;-74
2021/12/21 07:23:24;;;;;;;;;;;-0.90;99.90;;;;;;5031327;28;20381;-73
2021/12/21 07:25:50;;;;;;;;;;;-0.70;99.90;;;;;;5014315;28;19975;-74
2021/12/21 07:28:16;;;;;;;;;;;-0.60;99.90;;;;;;5030844;28;19905;-74
2021/12/21 07:30:42;;;;;;;;;;;-0.60;99.90;;;;;;5020867;28;20265;-74
2021/12/21 07:33:08;;;;;;;;;;;-0.90;99.90;;;;;;5027459;28;19916;-74
2021/12/21 07:35:34;;;;;;;;;;;-1.00;99.90;;;;;;5030936;28;19905;-73
2021/12/21 07:38:00;;;;;;;;;;;-1.00;99.90;;;;;;5032210;28;19905;-74
2021/12/21 07:40:26;;;;;;;;;;;-1.00;99.90;;;;;;5031131;28;20379;-74
2021/12/21 07:42:52;;;;;;;;;;;-1.00;99.90;;;;;;5014250;28;19912;-74
2021/12/21 07:45:18;;;;;;;;;;;-1.20;99.90;;;;;;5030960;28;19905;-73
2021/12/21 07:47:44;;;;;;;;;;;-1.20;99.90;;;;;;5030737;28;19905;-74
2021/12/21 07:50:10;;;;;;;;;;;-1.20;99.90;;;;;;5032168;28;19909;-74
2021/12/21 07:52:36;;;;;;;;;;;-1.20;99.90;;;;;;5029684;28;19936;-74
2021/12/21 07:55:03;;;;;;;;;;;-1.20;99.90;;;;;;5029766;28;19975;-74
2021/12/21 07:57:28;;;;;;;;;;;-1.10;99.90;;;;;;5030329;28;19905;-74
2021/12/21 07:59:54;;;;;;;;;;;-1.10;99.90;;;;;;5029564;28;19912;-73
2021/12/21 08:02:20;;;;;;;;;;;-1.20;99.90;;;;;;5035688;28;20302;-74
2021/12/21 08:04:46;;;;;;;;;;;-1.20;99.90;;;;;;5035922;28;20375;-74
2021/12/21 08:07:16;;;;;;;;;;;-1.20;99.90;;;;;;5035811;28;19912;-74
2021/12/21 08:09:46;;;;;;;;;;;-1.20;99.90;;;;;;5018535;28;19905;-73
2021/12/21 08:12:16;;;;;;;;;;;-1.20;99.90;;;;;;5034510;28;20221;-73
2021/12/21 08:14:42;;;;;;;;;;;-1.20;99.90;;;;;;5034676;28;19909;-73
2021/12/21 08:17:08;;;;;;;;;;;-1.20;99.90;;;;;;5035278;28;19920;-74
2021/12/21 08:19:34;;;;;;;;;;;-1.20;99.90;;;;;;5034137;28;19912;-74
2021/12/21 08:22:00;;;;;;;;;;;-1.10;99.90;;;;;;5035660;28;19931;-74
2021/12/21 08:24:25;;;;;;;;;;;-1.10;99.90;;;;;;5035689;28;19909;-73
2021/12/21 08:26:51;;;;;;;;;;;-1.20;99.90;;;;;;5035339;28;19911;-74
2021/12/21 08:29:16;;;;;;;;;;;-1.00;99.90;;;;;;5033050;28;19997;-74
2021/12/21 08:31:42;;;;;;;;;;;-1.10;99.90;;;;;;5034101;28;19905;-74
2021/12/21 08:34:10;;;;;;;;;;;-0.90;99.90;;;;;;5033988;28;19916;-73
2021/12/21 08:36:36;;;;;;;;;;;-1.00;99.90;;;;;;5035100;28;19912;-73
2021/12/21 08:39:04;;;;;;;;;;;-1.00;99.90;;;;;;5021668;28;19921;-73
2021/12/21 08:41:30;;;;;;;;;;;-1.20;99.90;;;;;;5031434;28;19909;-74
2021/12/21 08:43:55;;;;;;;;;;;-1.10;99.90;;;;;;5014254;28;19905;-73
2021/12/21 08:46:22;;;;;;;;;;;-0.90;99.90;;;;;;5030161;28;19912;-74
2021/12/21 08:48:47;;;;;;;;;;;-1.00;99.90;;;;;;5033965;28;20392;-74
2021/12/21 08:51:13;;;;;;;;;;;-1.10;99.90;;;;;;5034958;28;19951;-74
2021/12/21 08:53:42;;;;;;;;;;;-1.00;99.90;;;;;;5033932;28;19924;-74
2021/12/21 08:56:08;;;;;;;;;;;-1.10;99.90;;;;;;5019464;28;19906;-73
2021/12/21 08:58:34;;;;;;;;;;;-1.10;99.90;;;;;;5015545;28;19924;-74
2021/12/21 09:01:00;;;;;;;;;;;-1.00;99.90;;;;;;5034820;28;20266;-74
2021/12/21 09:03:25;;;;;;;;;;;-0.70;99.90;;;;;;5033843;28;19912;-74
2021/12/21 09:05:52;;;;;;;;;;;-0.70;99.90;;;;;;5033467;28;20377;-73
2021/12/21 09:08:18;;;;;;;;;;;-0.70;99.90;;;;;;5034687;28;19905;-74
2021/12/21 09:10:44;;;;;;;;;;;-0.60;99.90;;;;;;5034567;28;20007;-73
2021/12/21 09:13:10;;;;;;;;;;;-0.40;99.90;;;;;;5019571;28;19913;-73
2021/12/21 09:15:36;;;;;;;;;;;-0.50;99.90;;;;;;5014811;28;19905;-73
2021/12/21 09:18:02;;;;;;;;;;;-0.50;99.90;;;;;;5014694;28;19921;-73
2021/12/21 09:20:28;;;;;;;;;;;-0.60;99.90;;;;;;5014946;28;20354;-73
2021/12/21 09:22:54;;;;;;;;;;;-0.50;99.90;;;;;;5014715;28;20063;-73
2021/12/21 09:25:20;;;;;;;;;;;-0.60;99.90;;;;;;5013395;28;19951;-73
2021/12/21 09:27:47;;;;;;;;;;;-0.50;99.90;;;;;;5014575;28;19992;-73
2021/12/21 09:30:15;;;;;;;;;;;-0.40;99.90;;;;;;5013238;28;20349;-73
2021/12/21 09:32:42;;;;;;;;;;;-0.40;99.90;;;;;;5013305;28;19905;-73
2021/12/21 09:35:08;;;;;;;;;;;-0.30;99.90;;;;;;5014262;28;19910;-73
2021/12/21 09:37:34;;;;;;;;;;;-0.20;99.90;;;;;;5014544;28;20016;-73
2021/12/21 09:40:00;;;;;;;;;;;-0.20;99.90;;;;;;5013415;28;19909;-73
2021/12/21 09:42:27;;;;;;;;;;;-0.20;99.90;;;;;;4996684;28;19906;-73
2021/12/21 09:44:53;;;;;;;;;;;-0.30;99.90;;;;;;5013128;28;19955;-73
2021/12/21 09:47:19;;;;;;;;;;;-0.20;99.90;;;;;;5014078;28;20354;-73
2021/12/21 09:49:45;;;;;;;;;;;0.10;99.90;;;;;;5014536;28;19906;-74
2021/12/21 09:52:11;;;;;;;;;;;1.00;99.90;;;;;;5013072;28;20369;-74
2021/12/21 09:54:38;;;;;;;;;;;2.10;99.90;;;;;;4996341;28;19913;-73
2021/12/21 09:57:04;;;;;;;;;;;2.80;99.90;;;;;;5013814;28;19905;-73
2021/12/21 09:59:30;;;;;;;;;;;3.40;99.90;;;;;;5013878;28;20003;-73
2021/12/21 10:01:57;;;;;;;;;;;3.60;99.30;;;;;;5013706;28;19996;-73
2021/12/21 10:04:26;;;;;;;;;;;4.10;97.60;;;;;;5012637;28;19909;-74
2021/12/21 10:06:53;;;;;;;;;;;4.30;95.00;;;;;;5013751;28;19909;-73
2021/12/21 10:09:20;;;;;;;;;;;4.30;94.30;;;;;;5013831;28;19932;-74
2021/12/21 10:11:48;;;;;;;;;;;3.40;94.40;;;;;;5013833;28;19905;-73
2021/12/21 10:14:15;;;;;;;;;;;2.70;95.30;;;;;;4995864;28;19913;-74
2021/12/21 10:16:41;;;;;;;;;;;1.80;97.30;;;;;;4995888;28;19917;-74
2021/12/21 10:19:07;;;;;;;;;;;1.70;99.20;;;;;;4996229;28;20008;-73
2021/12/21 10:21:43;;;;;;;;;;;0.90;99.90;;;;;;5013312;28;19906;-74
2021/12/21 10:24:08;;;;;;;;;;;0.90;99.90;;;;;;4996151;28;19971;-74
2021/12/21 10:26:34;;;;;;;;;;;1.00;99.90;;;;;;5013538;28;19905;-73
2021/12/21 10:29:02;;;;;;;;;;;1.10;99.90;;;;;;5012374;28;19906;-73
2021/12/21 10:31:39;;;;;;;;;;;1.20;99.90;;;;;;5013499;28;19912;-73
2021/12/21 10:34:10;;;;;;;;;;;1.40;99.90;;;;;;5012118;28;20344;-73
2021/12/21 10:36:42;;;;;;;;;;;1.40;99.90;;;;;;5020534;28;20548;-74
2021/12/21 10:39:07;;;;;;;;;;;1.40;99.90;;;;;;5033216;28;19912;-73
2021/12/21 10:41:34;;;;;;;;;;;1.30;99.90;;;;;;5031715;28;19904;-73
2021/12/21 10:44:02;;;;;;;;;;;1.00;99.90;;;;;;5033107;28;19909;-73
2021/12/21 10:46:29;;;;;;;;;;;1.10;99.90;;;;;;5031341;28;20447;-73
2021/12/21 10:49:15;;;;;;;;;;;1.20;99.90;;;;;;5033138;28;19912;-73
2021/12/21 10:51:52;;;;;;;;;;;0.70;99.90;;;;;;5033078;28;19972;-74
2021/12/21 10:54:30;;;;;;;;;;;0.40;99.90;;;;;;5031645;28;20296;-74
2021/12/21 10:56:59;;;;;;;;;;;0.50;99.90;;;;;;5031444;28;19913;-74
2021/12/21 10:59:29;;;;;;;;;;;0.30;99.90;;;;;;5032840;28;20305;-74
2021/12/21 11:02:03;;;;;;;;;;;0.50;99.90;;;;;;5014940;28;19912;-74
2021/12/21 11:04:33;;;;;;;;;;;1.50;99.90;;;;;;5032741;28;19916;-74
2021/12/21 11:07:08;;;;;;;;;;;2.70;99.90;;;;;;5032930;28;19925;-74
2021/12/21 11:09:34;;;;;;;;;;;2.20;99.90;;;;;;5032756;28;19927;-73
2021/12/21 11:12:01;;;;;;;;;;;1.80;99.90;;;;;;5032598;28;19909;-73
2021/12/21 11:14:29;;;;;;;;;;;2.00;99.90;;;;;;5014243;28;19909;-73
2021/12/21 11:16:55;;;;;;;;;;;2.00;99.90;;;;;;5031181;28;19920;-74
2021/12/21 11:19:23;;;;;;;;;;;1.60;99.90;;;;;;5014728;28;19905;-74
2021/12/21 11:21:49;;;;;;;;;;;1.40;99.90;;;;;;5031277;28;19999;-74
2021/12/21 11:24:19;;;;;;;;;;;1.10;99.90;;;;;;5031447;28;20258;-73
2021/12/21 11:26:46;;;;;;;;;;;0.80;99.90;;;;;;5031061;28;20330;-73
2021/12/21 11:29:15;;;;;;;;;;;0.70;99.90;;;;;;5014630;28;19941;-73
2021/12/21 11:31:42;;;;;;;;;;;0.70;99.90;;;;;;5032361;28;19905;-74
2021/12/21 11:34:12;;;;;;;;;;;0.90;99.90;;;;;;5030150;28;19976;-74
2021/12/21 11:39:23;;;;;;;;;;;1.30;99.90;;;;;;5031219;28;19995;-74
2021/12/21 11:41:50;;;;;;;;;;;1.20;99.90;;;;;;5030319;28;20377;-74
2021/12/21 11:44:34;;;;;;;;;;;1.00;99.90;;;;;;5030498;28;20277;-74
2021/12/21 11:47:03;;;;;;;;;;;0.80;99.90;;;;;;5016575;28;19910;-73
2021/12/21 11:49:34;;;;;;;;;;;0.90;99.90;;;;;;5009839;28;19905;-73
2021/12/21 11:52:13;;;;;;;;;;;0.90;99.90;;;;;;5010937;28;19964;-74
2021/12/21 11:54:43;;;;;;;;;;;0.80;99.90;;;;;;5011880;28;19967;-74
2021/12/21 11:57:09;;;;;;;;;;;0.90;99.90;;;;;;5011509;28;20384;-74
2021/12/21 11:59:34;;;;;;;;;;;1.10;99.90;;;;;;5011086;28;19944;-74
2021/12/21 12:02:02;;;;;;;;;;;1.10;99.90;;;;;;5011260;28;20306;-73
2021/12/21 12:04:27;;;;;;;;;;;1.00;99.90;;;;;;5012344;28;20292;-73
2021/12/21 12:06:54;;;;;;;;;;;0.90;99.90;;;;;;5012164;28;19909;-74
2021/12/21 12:09:22;;;;;;;;;;;0.70;99.90;;;;;;5011144;28;19960;-73
2021/12/21 12:11:48;;;;;;;;;;;0.60;99.90;;;;;;5012240;28;19906;-74
2021/12/21 12:14:21;;;;;;;;;;;0.60;99.90;;;;;;4994551;28;19909;-74
2021/12/21 12:16:52;;;;;;;;;;;0.60;99.90;;;;;;5010431;28;20373;-74
2021/12/21 12:19:20;;;;;;;;;;;0.70;99.90;;;;;;5010798;28;19905;-73
2021/12/21 12:22:01;;;;;;;;;;;0.40;99.90;;;;;;5010753;28;19905;-74
2021/12/21 12:24:32;;;;;;;;;;;0.50;99.90;;;;;;5010934;28;20011;-74
2021/12/21 12:27:19;;;;;;;;;;;0.60;99.90;;;;;;5012070;28;19913;-74
2021/12/21 12:29:49;;;;;;;;;;;0.30;99.90;;;;;;5010607;28;19905;-73
2021/12/21 12:32:16;;;;;;;;;;;0.30;99.90;;;;;;5010884;28;19916;-73
2021/12/21 12:34:42;;;;;;;;;;;0.40;99.90;;;;;;4994361;28;19909;-74
2021/12/21 12:37:22;;;;;;;;;;;0.60;99.90;;;;;;5023383;28;19912;-73
2021/12/21 12:39:51;;;;;;;;;;;0.40;99.90;;;;;;5030747;28;20004;-73
2021/12/21 12:42:29;;;;;;;;;;;0.40;99.90;;;;;;5031737;28;19913;-74
2021/12/21 12:45:04;;;;;;;;;;;0.30;99.90;;;;;;5031044;28;19936;-73
2021/12/21 12:47:30;;;;;;;;;;;0.00;99.90;;;;;;5017161;28;19949;-74
2021/12/21 12:49:56;;;;;;;;;;;0.00;99.90;;;;;;5031430;28;19967;-74
2021/12/21 12:52:30;;;;;;;;;;;0.00;99.90;;;;;;5034814;28;20357;-74
2021/12/21 12:54:58;;;;;;;;;;;0.10;99.90;;;;;;5034767;28;20369;-74
2021/12/21 12:57:27;;;;;;;;;;;0.20;99.90;;;;;;5034504;28;19905;-73
2021/12/21 12:59:55;;;;;;;;;;;0.20;99.90;;;;;;5033170;28;20285;-73
2021/12/21 13:02:21;;;;;;;;;;;0.40;99.90;;;;;;5016419;28;19905;-74
2021/12/21 13:04:47;;;;;;;;;;;0.40;99.90;;;;;;5032307;28;19931;-74
2021/12/21 13:07:14;;;;;;;;;;;0.40;99.90;;;;;;5033047;28;20471;-74
2021/12/21 13:09:39;;;;;;;;;;;0.30;99.90;;;;;;5033099;28;19912;-74
2021/12/21 13:12:10;;;;;;;;;;;0.20;99.90;;;;;;5034399;28;19955;-74
2021/12/21 13:14:35;;;;;;;;;;;0.20;99.90;;;;;;5033619;28;19935;-74
2021/12/21 13:17:01;;;;;;;;;;;0.10;99.90;;;;;;5046483;22;19921;-74
2021/12/21 13:19:28;;;;;;;;;;;0.00;99.90;;;;;;5016742;28;20249;-75
2021/12/21 13:21:57;;;;;;;;;;;-0.10;99.90;;;;;;5034156;28;20434;-76
2021/12/21 13:24:33;;;;;;;;;;;-0.10;99.90;;;;;;5034605;28;20295;-76
2021/12/21 13:26:59;;;;;;;;;;;-0.20;99.90;;;;;;5016453;28;19928;-76
2021/12/21 13:29:30;;;;;;;;;;;-0.20;99.90;;;;;;5034305;28;19912;-76
2021/12/21 13:31:57;;;;;;;;;;;0.00;99.90;;;;;;5034530;28;19905;-76
2021/12/21 13:34:24;;;;;;;;;;;0.00;99.90;;;;;;5034878;28;20020;-76
2021/12/21 13:36:57;;;;;;;;;;;0.00;99.90;;;;;;5024939;28;20285;-76
2021/12/21 13:39:24;;;;;;;;;;;0.00;99.90;;;;;;5015187;28;19905;-76
2021/12/21 13:41:54;;;;;;;;;;;0.00;99.90;;;;;;4998749;28;20780;-77
2021/12/21 13:44:40;;;;;;;;;;;-0.10;99.90;;;;;;4982090;28;20245;-76
2021/12/21 13:47:17;;;;;;;;;;;-0.20;99.90;;;;;;4980656;28;19912;-76
2021/12/21 13:49:51;;;;;;;;;;;-0.20;99.90;;;;;;5014534;28;19964;-76
2021/12/21 13:52:18;;;;;;;;;;;-0.20;99.90;;;;;;4997027;28;19906;-76
2021/12/21 13:54:43;;;;;;;;;;;-0.20;99.90;;;;;;4981705;28;20048;-76
2021/12/21 13:57:09;;;;;;;;;;;-0.30;99.90;;;;;;4980251;28;20372;-77
2021/12/21 13:59:38;;;;;;;;;;;-0.10;99.90;;;;;;4996961;28;19909;-77
2021/12/21 14:02:07;;;;;;;;;;;-0.10;99.90;;;;;;4997016;28;19999;-76
2021/12/21 14:04:39;;;;;;;;;;;-0.10;99.90;;;;;;5014379;28;19905;-76
2021/12/21 14:07:05;;;;;;;;;;;-0.30;99.90;;;;;;5015307;28;19916;-76
2021/12/21 14:09:31;;;;;;;;;;;-0.50;99.90;;;;;;5034002;28;19905;-76
2021/12/21 14:11:57;;;;;;;;;;;-0.60;99.90;;;;;;5021032;28;19963;-77
2021/12/21 14:14:22;;;;;;;;;;;-0.50;99.90;;;;;;5013479;28;19916;-75
2021/12/21 14:16:50;;;;;;;;;;;-0.50;99.90;;;;;;4996900;28;19905;-76
2021/12/21 14:19:21;;;;;;;;;;;-0.60;99.90;;;;;;4979791;28;20284;-76
2021/12/21 14:21:50;;;;;;;;;;;-0.60;99.90;;;;;;4979421;28;19909;-77
2021/12/21 14:24:20;;;;;;;;;;;-0.60;99.90;;;;;;4984709;28;19912;-76
2021/12/21 14:26:49;;;;;;;;;;;-0.60;99.90;;;;;;5013967;28;19916;-76
2021/12/21 14:29:16;;;;;;;;;;;-0.70;99.90;;;;;;4998908;28;20409;-77
2021/12/21 14:32:02;;;;;;;;;;;-0.50;99.90;;;;;;5002893;28;20285;-77
2021/12/21 14:34:42;;;;;;;;;;;-0.60;99.90;;;;;;4996528;28;19909;-78
2021/12/21 14:37:10;;;;;;;;;;;-0.60;99.90;;;;;;5016914;28;20276;-77
2021/12/21 14:39:40;;;;;;;;;;;-0.60;99.90;;;;;;4981086;28;19906;-77
2021/12/21 14:42:08;;;;;;;;;;;-0.40;99.90;;;;;;5014622;28;19905;-77
2021/12/21 14:44:41;;;;;;;;;;;-0.30;99.90;;;;;;5014862;28;20380;-77
2021/12/21 14:47:11;;;;;;;;;;;-0.20;99.90;;;;;;4981201;28;19916;-77
2021/12/21 14:49:40;;;;;;;;;;;-0.20;99.90;;;;;;4997082;28;20397;-76
2021/12/21 14:52:19;;;;;;;;;;;-0.10;99.90;;;;;;5014702;28;19976;-77
2021/12/21 14:54:51;;;;;;;;;;;-0.10;99.90;;;;;;5015129;28;20265;-77
2021/12/21 14:57:33;;;;;;;;;;;-0.20;99.90;;;;;;5015244;28;19917;-77
2021/12/21 15:00:00;;;;;;;;;;;-0.40;99.90;;;;;;4995865;28;19905;-76
2021/12/21 15:04:58;;;;;;;;;;;-0.20;99.90;;;;;;5012906;28;19980;-76
2021/12/21 15:07:25;;;;;;;;;;;-0.20;99.90;;;;;;4979276;28;20413;-77
2021/12/21 15:09:51;;;;;;;;;;;-0.30;99.90;;;;;;4978858;28;19916;-76
2021/12/21 15:12:17;;;;;;;;;;;-0.30;99.90;;;;;;5013240;28;20000;-77
2021/12/21 15:14:43;;;;;;;;;;;-0.30;99.90;;;;;;4978799;28;19909;-77
2021/12/21 15:17:09;;;;;;;;;;;-0.30;99.90;;;;;;5012996;28;20454;-75
2021/12/21 15:19:35;;;;;;;;;;;-0.20;99.90;;;;;;4994991;28;20349;-75
2021/12/21 15:22:01;;;;;;;;;;;-0.10;99.90;;;;;;4995448;28;19906;-75
2021/12/21 15:24:27;;;;;;;;;;;-0.10;99.90;;;;;;4979654;28;19955;-77
2021/12/21 15:26:52;;;;;;;;;;;-0.10;99.90;;;;;;4979067;28;20349;-76